createdAt,value
2023-04-15T00:00:56.887Z,6.17
2023-04-15T00:03:23.706Z,6.12
2023-04-15T00:05:50.362Z,6.16
2023-04-15T00:08:16.850Z,6.15
2023-04-15T00:10:44.292Z,6.12
2023-04-15T00:13:10.887Z,6.12
2023-04-15T00:15:37.734Z,6.13
2023-04-15T00:18:04.518Z,6.06
2023-04-15T00:20:31.419Z,6.17
2023-04-15T00:22:59.437Z,5.91
2023-04-15T00:25:26.331Z,6.05
2023-04-15T00:27:52.833Z,6.09
2023-04-15T00:30:19.683Z,6.00
2023-04-15T00:32:46.963Z,5.97
2023-04-15T00:35:13.865Z,6.07
2023-04-15T00:37:40.462Z,6.06
2023-04-15T00:40:12.947Z,6.03
2023-04-15T00:42:39.533Z,5.98
2023-04-15T00:45:07.163Z,5.96
2023-04-15T00:47:35.610Z,5.99
2023-04-15T00:50:02.297Z,5.98
2023-04-15T00:52:28.853Z,5.96
2023-04-15T00:54:55.652Z,5.94
2023-04-15T00:57:22.851Z,5.91
2023-04-15T00:59:50.701Z,5.97
2023-04-15T01:02:17.972Z,5.98
2023-04-15T01:04:44.599Z,5.93
2023-04-15T01:07:11.067Z,5.98
2023-04-15T01:09:37.795Z,5.98
2023-04-15T01:12:05.746Z,5.99
2023-04-15T01:14:33.644Z,5.90
2023-04-15T01:17:00.804Z,5.98
2023-04-15T01:19:27.651Z,5.97
2023-04-15T01:21:55.101Z,5.98
2023-04-15T01:24:22.111Z,5.88
2023-04-15T01:26:49.815Z,5.86
2023-04-15T01:29:16.639Z,5.85
2023-04-15T01:31:54.992Z,5.87
2023-04-15T01:34:22.310Z,5.85
2023-04-15T01:36:48.924Z,5.91
2023-04-15T01:39:15.924Z,5.88
2023-04-15T01:41:42.518Z,5.92
2023-04-15T01:44:09.231Z,5.93
2023-04-15T01:46:37.116Z,5.94
2023-04-15T01:49:03.809Z,5.92
2023-04-15T01:51:32.208Z,5.92
2023-04-15T01:53:58.929Z,5.92
2023-04-15T01:56:25.630Z,5.91
2023-04-15T01:58:52.872Z,5.86
2023-04-15T02:01:20.103Z,5.94
2023-04-15T02:03:47.905Z,5.92
2023-04-15T02:06:15.509Z,5.85
2023-04-15T02:08:42.166Z,5.87
2023-04-15T02:11:09.378Z,5.85
2023-04-15T02:13:36.314Z,5.85
2023-04-15T02:16:03.601Z,5.81
2023-04-15T02:18:30.550Z,5.81
2023-04-15T02:20:58.669Z,5.79
2023-04-15T02:23:25.592Z,5.73
2023-04-15T02:25:53.486Z,5.83
2023-04-15T02:28:21.560Z,5.82
2023-04-15T02:30:52.530Z,5.81
2023-04-15T02:33:19.322Z,5.82
2023-04-15T02:35:45.906Z,5.83
2023-04-15T02:38:14.262Z,5.75
2023-04-15T02:40:41.016Z,5.79
2023-04-15T02:43:07.422Z,5.77
2023-04-15T02:45:34.783Z,5.77
2023-04-15T02:48:06.258Z,5.74
2023-04-15T02:50:33.371Z,5.77
2023-04-15T02:53:01.582Z,5.73
2023-04-15T02:55:29.245Z,5.74
2023-04-15T02:57:56.041Z,5.76
2023-04-15T03:00:25.216Z,5.77
2023-04-15T03:02:56.594Z,5.79
2023-04-15T03:05:25.374Z,5.79
2023-04-15T03:07:52.554Z,5.46
2023-04-15T03:10:20.328Z,5.47
2023-04-15T03:12:47.052Z,5.50
2023-04-15T03:15:17.596Z,5.52
2023-04-15T03:17:49.558Z,5.50
2023-04-15T03:20:16.965Z,5.54
2023-04-15T03:22:43.907Z,5.56
2023-04-15T03:25:10.810Z,5.56
2023-04-15T03:27:38.569Z,5.52
2023-04-15T03:30:06.679Z,5.47
2023-04-15T03:32:35.971Z,5.51
2023-04-15T03:35:02.558Z,5.47
2023-04-15T03:37:28.936Z,5.60
2023-04-15T03:39:55.581Z,5.52
2023-04-15T03:42:22.262Z,5.47
2023-04-15T03:44:48.743Z,5.43
2023-04-15T03:47:15.116Z,5.50
2023-04-15T03:49:41.618Z,5.52
2023-04-15T03:52:07.991Z,5.53
2023-04-15T03:54:34.501Z,5.51
2023-04-15T03:57:01.325Z,5.51
2023-04-15T03:59:27.830Z,5.53
2023-04-15T04:01:54.241Z,5.56
2023-04-15T04:04:21.129Z,5.33
2023-04-15T04:06:47.672Z,5.29
2023-04-15T04:09:14.071Z,5.50
2023-04-15T04:11:40.514Z,5.38
2023-04-15T04:14:06.970Z,5.45
2023-04-15T04:16:33.530Z,5.48
2023-04-15T04:19:00.373Z,5.46
2023-04-15T04:21:28.058Z,5.41
2023-04-15T04:23:54.755Z,5.55
2023-04-15T04:26:21.495Z,5.56
2023-04-15T04:28:48.340Z,5.49
2023-04-15T04:31:14.926Z,5.58
2023-04-15T04:33:41.602Z,5.49
2023-04-15T04:36:08.088Z,5.49
2023-04-15T04:38:34.591Z,5.66
2023-04-15T04:41:01.074Z,5.40
2023-04-15T04:43:27.570Z,5.51
2023-04-15T04:45:54.072Z,5.58
2023-04-15T04:48:20.565Z,5.61
2023-04-15T04:50:47.111Z,5.61
2023-04-15T04:53:13.630Z,5.65
2023-04-15T04:55:40.512Z,5.80
2023-04-15T04:58:06.953Z,5.85
2023-04-15T05:00:33.623Z,5.83
2023-04-15T05:03:00.812Z,5.76
2023-04-15T05:05:27.482Z,5.78
2023-04-15T05:07:54.031Z,5.77
2023-04-15T05:10:20.562Z,5.86
2023-04-15T05:12:47.072Z,6.00
2023-04-15T05:15:13.511Z,6.10
2023-04-15T05:17:40.046Z,6.04
2023-04-15T05:20:07.419Z,6.04
2023-04-15T05:22:33.911Z,6.12
2023-04-15T05:25:00.435Z,6.25
2023-04-15T05:27:27.089Z,6.31
2023-04-15T05:29:53.708Z,6.16
2023-04-15T05:32:20.744Z,6.23
2023-04-15T05:34:47.380Z,6.21
2023-04-15T05:37:13.905Z,6.21
2023-04-15T05:39:40.497Z,6.34
2023-04-15T05:42:07.094Z,6.36
2023-04-15T05:44:33.618Z,6.49
2023-04-15T05:47:00.192Z,6.55
2023-04-15T05:49:27.475Z,6.65
2023-04-15T05:51:53.916Z,6.53
2023-04-15T05:54:21.917Z,6.56
2023-04-15T05:56:48.553Z,6.72
2023-04-15T05:59:15.059Z,6.56
2023-04-15T06:01:41.415Z,6.72
2023-04-15T06:04:07.964Z,6.64
2023-04-15T06:06:34.754Z,6.57
2023-04-15T06:09:01.382Z,6.70
2023-04-15T06:11:28.064Z,6.59
2023-04-15T06:13:54.387Z,6.65
2023-04-15T06:16:21.254Z,6.54
2023-04-15T06:18:47.792Z,6.63
2023-04-15T06:21:14.841Z,6.62
2023-04-15T06:23:41.516Z,6.75
2023-04-15T06:26:08.446Z,6.94
2023-04-15T06:28:34.975Z,6.92
2023-04-15T06:31:02.272Z,7.13
2023-04-15T06:33:29.221Z,7.26
2023-04-15T06:35:55.708Z,6.90
2023-04-15T06:38:22.115Z,7.09
2023-04-15T06:40:48.651Z,7.21
2023-04-15T06:43:15.389Z,7.37
2023-04-15T06:45:41.884Z,7.20
2023-04-15T06:48:08.310Z,7.53
2023-04-15T06:50:35.694Z,7.17
2023-04-15T06:53:03.093Z,7.54
2023-04-15T06:55:29.796Z,7.58
2023-04-15T06:57:56.303Z,7.73
2023-04-15T07:00:22.871Z,7.75
2023-04-15T07:02:49.384Z,7.74
2023-04-15T07:05:15.903Z,7.99
2023-04-15T07:07:42.768Z,8.02
2023-04-15T07:10:09.936Z,7.89
2023-04-15T07:12:36.536Z,7.89
2023-04-15T07:15:03.552Z,7.99
2023-04-15T07:17:30.104Z,8.19
2023-04-15T07:19:56.713Z,8.15
2023-04-15T07:22:23.129Z,8.47
2023-04-15T07:24:49.618Z,8.62
2023-04-15T07:27:17.482Z,8.12
2023-04-15T07:29:43.985Z,8.38
2023-04-15T07:32:10.735Z,8.48
2023-04-15T07:34:38.078Z,8.26
2023-04-15T07:37:04.619Z,8.74
2023-04-15T07:39:31.166Z,8.21
2023-04-15T07:41:59.068Z,8.57
2023-04-15T07:44:26.982Z,8.39
2023-04-15T07:46:53.784Z,8.32
2023-04-15T07:49:21.440Z,7.92
2023-04-15T07:51:49.054Z,8.14
2023-04-15T07:54:16.287Z,8.39
2023-04-15T07:56:42.940Z,7.89
2023-04-15T07:59:10.120Z,8.21
2023-04-15T08:01:36.889Z,8.18
2023-04-15T08:04:03.910Z,8.02
2023-04-15T08:06:30.806Z,7.91
2023-04-15T08:08:57.433Z,8.45
2023-04-15T08:11:24.566Z,8.32
2023-04-15T08:13:52.430Z,8.26
2023-04-15T08:16:24.470Z,8.31
2023-04-15T08:18:52.704Z,8.32
2023-04-15T08:21:20.314Z,8.53
2023-04-15T08:23:49.464Z,8.25
2023-04-15T08:26:16.664Z,8.55
2023-04-15T08:28:44.862Z,8.59
2023-04-15T08:31:12.554Z,8.62
2023-04-15T08:33:39.123Z,8.53
2023-04-15T08:36:06.554Z,8.54
2023-04-15T08:38:33.553Z,8.56
2023-04-15T08:41:10.132Z,8.85
2023-04-15T08:43:54.351Z,9.09
2023-04-15T08:46:21.368Z,8.82
2023-04-15T08:48:49.207Z,9.02
2023-04-15T08:51:17.727Z,9.25
2023-04-15T08:53:46.425Z,8.90
2023-04-15T08:56:15.481Z,9.23
2023-04-15T08:58:43.925Z,8.96
2023-04-15T09:01:13.023Z,9.15
2023-04-15T09:03:40.810Z,8.96
2023-04-15T09:06:07.529Z,9.21
2023-04-15T09:08:36.913Z,9.20
2023-04-15T09:11:04.160Z,9.23
2023-04-15T09:13:31.584Z,9.57
2023-04-15T09:15:58.474Z,9.53
2023-04-15T09:18:32.541Z,9.72
2023-04-15T09:21:11.296Z,9.65
2023-04-15T09:23:39.961Z,10.13
2023-04-15T09:26:07.123Z,10.18
2023-04-15T09:28:35.891Z,10.67
2023-04-15T09:31:02.737Z,10.61
2023-04-15T09:33:30.204Z,10.27
2023-04-15T09:36:01.454Z,10.01
2023-04-15T09:38:28.170Z,10.29
2023-04-15T09:40:55.474Z,9.91
2023-04-15T09:43:22.199Z,9.86
2023-04-15T09:45:53.921Z,10.16
2023-04-15T09:48:28.073Z,9.92
2023-04-15T09:50:58.428Z,9.97
2023-04-15T09:53:26.459Z,10.38
2023-04-15T09:55:55.031Z,10.15
2023-04-15T09:58:24.220Z,10.36
2023-04-15T10:00:53.272Z,10.03
2023-04-15T10:03:26.572Z,10.61
2023-04-15T10:05:55.832Z,10.10
2023-04-15T10:08:27.854Z,10.04
2023-04-15T10:10:55.024Z,9.59
2023-04-15T10:13:24.405Z,10.19
2023-04-15T10:16:21.187Z,10.50
2023-04-15T10:18:53.454Z,10.58
2023-04-15T10:21:22.557Z,10.17
2023-04-15T10:23:50.060Z,9.88
2023-04-15T10:26:17.702Z,10.15
2023-04-15T10:28:47.183Z,10.22
2023-04-15T10:31:15.071Z,10.36
2023-04-15T10:33:43.342Z,10.34
2023-04-15T10:36:10.986Z,10.48
2023-04-15T10:38:42.468Z,10.23
2023-04-15T10:41:20.857Z,9.99
2023-04-15T10:43:52.772Z,9.57
2023-04-15T10:46:38.125Z,9.83
2023-04-15T10:49:16.418Z,10.03
2023-04-15T10:51:51.216Z,10.29
2023-04-15T10:54:26.619Z,10.11
2023-04-15T10:57:09.340Z,10.23
2023-04-15T10:59:37.592Z,10.30
2023-04-15T11:02:06.894Z,10.56
2023-04-15T11:04:53.403Z,10.10
2023-04-15T11:07:37.177Z,10.11
2023-04-15T11:10:25.505Z,9.73
2023-04-15T11:12:54.497Z,9.73
2023-04-15T11:15:45.148Z,9.62
2023-04-15T11:18:14.607Z,9.79
2023-04-15T11:20:44.904Z,9.57
2023-04-15T11:23:14.551Z,9.84
2023-04-15T11:25:42.824Z,9.99
2023-04-15T11:28:09.439Z,9.54
2023-04-15T11:30:37.520Z,9.70
2023-04-15T11:33:09.541Z,9.58
2023-04-15T11:35:36.362Z,9.27
2023-04-15T11:38:04.116Z,9.37
2023-04-15T11:40:31.576Z,9.32
2023-04-15T11:43:12.551Z,9.32
2023-04-15T11:46:01.365Z,9.76
2023-04-15T11:48:33.227Z,9.67
2023-04-15T11:51:04.558Z,9.55
2023-04-15T11:53:45.971Z,8.93
2023-04-15T11:56:21.091Z,9.30
2023-04-15T11:58:50.656Z,8.76
2023-04-15T12:01:17.178Z,9.06
2023-04-15T12:03:45.683Z,9.35
2023-04-15T12:06:23.603Z,9.40
2023-04-15T12:08:58.305Z,8.91
2023-04-15T12:11:29.431Z,8.97
2023-04-15T12:13:58.697Z,8.85
2023-04-15T12:16:26.031Z,8.54
2023-04-15T12:18:55.923Z,8.65
2023-04-15T12:21:24.659Z,8.78
2023-04-15T12:23:52.902Z,9.20
2023-04-15T12:26:28.248Z,8.78
2023-04-15T12:29:02.176Z,8.81
2023-04-15T12:31:29.169Z,8.24
2023-04-15T12:33:57.020Z,8.11
2023-04-15T12:36:23.974Z,8.26
2023-04-15T12:38:50.732Z,8.14
2023-04-15T12:41:17.248Z,8.56
2023-04-15T12:43:49.409Z,8.72
2023-04-15T12:46:16.219Z,8.08
2023-04-15T12:48:42.729Z,8.19
2023-04-15T12:51:09.706Z,8.10
2023-04-15T12:53:36.209Z,8.03
2023-04-15T12:56:02.658Z,7.74
2023-04-15T12:58:29.407Z,7.38
2023-04-15T13:00:55.952Z,7.81
2023-04-15T13:03:22.498Z,7.88
2023-04-15T13:05:48.880Z,8.07
2023-04-15T13:08:15.653Z,7.89
2023-04-15T13:10:43.388Z,8.00
2023-04-15T13:13:10.066Z,7.82
2023-04-15T13:15:36.993Z,7.74
2023-04-15T13:18:05.070Z,7.79
2023-04-15T13:20:31.858Z,7.71
2023-04-15T13:22:58.321Z,7.83
2023-04-15T13:25:25.998Z,7.86
2023-04-15T13:27:52.420Z,7.88
2023-04-15T13:30:18.977Z,8.04
2023-04-15T13:32:45.719Z,7.66
2023-04-15T13:35:12.244Z,7.80
2023-04-15T13:37:39.454Z,7.92
2023-04-15T13:40:07.492Z,7.72
2023-04-15T13:42:34.213Z,7.64
2023-04-15T13:45:00.632Z,7.52
2023-04-15T13:47:27.461Z,7.68
2023-04-15T13:49:56.213Z,7.70
2023-04-15T13:52:23.451Z,7.48
2023-04-15T13:55:18.324Z,7.49
2023-04-15T13:57:36.946Z,7.71
2023-04-15T14:00:04.630Z,7.79
2023-04-15T14:02:33.293Z,7.89
2023-04-15T14:04:59.819Z,7.83
2023-04-15T14:07:26.295Z,7.78
2023-04-15T14:09:52.743Z,7.62
2023-04-15T14:12:19.151Z,8.09
2023-04-15T14:14:45.840Z,7.89
2023-04-15T14:17:12.564Z,7.64
2023-04-15T14:19:39.099Z,7.81
2023-04-15T14:22:06.049Z,7.93
2023-04-15T14:24:32.588Z,7.91
2023-04-15T14:26:59.256Z,7.79
2023-04-15T14:29:26.136Z,7.50
2023-04-15T14:32:03.863Z,7.77
2023-04-15T14:34:38.248Z,7.28
2023-04-15T14:37:05.091Z,7.25
2023-04-15T14:39:31.621Z,7.36
2023-04-15T14:41:58.698Z,7.37
2023-04-15T14:44:25.294Z,7.72
2023-04-15T14:46:52.196Z,7.52
2023-04-15T14:49:18.730Z,7.57
2023-04-15T14:51:46.243Z,7.43
2023-04-15T14:54:12.738Z,7.32
2023-04-15T14:56:39.192Z,7.31
2023-04-15T14:59:06.140Z,7.45
2023-04-15T15:01:33.845Z,7.77
2023-04-15T15:04:00.668Z,7.32
2023-04-15T15:06:27.835Z,7.36
2023-04-15T15:08:54.364Z,7.22
2023-04-15T15:11:20.996Z,7.24
2023-04-15T15:13:47.522Z,7.12
2023-04-15T15:16:14.723Z,7.08
2023-04-15T15:18:41.311Z,7.21
2023-04-15T15:21:07.686Z,7.22
2023-04-15T15:23:34.188Z,7.11
2023-04-15T15:26:00.744Z,6.99
2023-04-15T15:28:27.332Z,7.05
2023-04-15T15:30:53.755Z,7.11
2023-04-15T15:33:20.874Z,7.30
2023-04-15T15:35:47.436Z,7.16
2023-04-15T15:38:13.804Z,7.39
2023-04-15T15:40:40.309Z,7.22
2023-04-15T15:43:06.737Z,7.24
2023-04-15T15:45:33.631Z,7.03
2023-04-15T15:48:01.721Z,6.96
2023-04-15T15:50:28.261Z,7.11
2023-04-15T15:52:55.422Z,6.99
2023-04-15T15:55:21.959Z,7.15
2023-04-15T15:57:48.580Z,6.99
2023-04-15T16:00:15.255Z,7.17
2023-04-15T16:05:12.654Z,7.09
2023-04-15T16:07:39.069Z,7.00
2023-04-15T16:10:06.262Z,6.91
2023-04-15T16:12:35.015Z,6.90
2023-04-15T16:15:04.221Z,6.90
2023-04-15T16:17:30.881Z,7.38
2023-04-15T16:20:00.924Z,7.09
2023-04-15T16:22:27.790Z,6.65
2023-04-15T16:24:54.423Z,6.52
2023-04-15T16:27:20.886Z,6.83
2023-04-15T16:29:47.261Z,6.79
2023-04-15T16:32:13.782Z,6.89
2023-04-15T16:34:41.304Z,6.67
2023-04-15T16:37:08.096Z,6.74
2023-04-15T16:39:34.602Z,6.53
2023-04-15T16:42:02.415Z,6.56
2023-04-15T16:44:29.186Z,6.79
2023-04-15T16:46:56.326Z,6.79
2023-04-15T16:49:22.806Z,6.85
2023-04-15T16:51:49.185Z,6.74
2023-04-15T16:54:15.647Z,6.80
2023-04-15T16:56:42.013Z,6.93
2023-04-15T16:59:08.475Z,6.72
2023-04-15T17:01:35.099Z,6.77
2023-04-15T17:04:01.730Z,6.83
2023-04-15T17:06:28.449Z,6.78
2023-04-15T17:08:54.995Z,6.93
2023-04-15T17:11:21.392Z,7.00
2023-04-15T17:13:48.993Z,6.80
2023-04-15T17:16:15.666Z,6.65
2023-04-15T17:18:42.195Z,6.80
2023-04-15T17:21:08.608Z,6.91
2023-04-15T17:23:35.409Z,6.62
2023-04-15T17:26:02.050Z,6.82
2023-04-15T17:28:28.647Z,6.78
2023-04-15T17:30:55.294Z,6.84
2023-04-15T17:33:57.393Z,6.88
2023-04-15T17:36:08.769Z,6.88
2023-04-15T17:38:35.260Z,6.83
2023-04-15T17:41:02.649Z,6.85
2023-04-15T17:43:29.177Z,6.86
2023-04-15T17:45:57.593Z,6.94
2023-04-15T17:48:28.084Z,6.91
2023-04-15T17:50:54.556Z,6.69
2023-04-15T17:53:20.928Z,6.92
2023-04-15T17:55:47.390Z,6.81
2023-04-15T17:58:13.745Z,6.86
2023-04-15T18:00:40.338Z,6.72
2023-04-15T18:03:06.827Z,6.71
2023-04-15T18:05:33.722Z,6.82
2023-04-15T18:08:00.175Z,6.84
2023-04-15T18:10:26.592Z,6.79
2023-04-15T18:12:53.036Z,6.83
2023-04-15T18:15:19.502Z,6.93
2023-04-15T18:17:46.210Z,6.86
2023-04-15T18:20:12.946Z,6.89
2023-04-15T18:22:39.962Z,6.83
2023-04-15T18:25:07.029Z,6.78
2023-04-15T18:27:34.307Z,6.84
2023-04-15T18:30:00.871Z,6.77
2023-04-15T18:32:31.680Z,6.60
2023-04-15T18:34:58.565Z,6.69
2023-04-15T18:37:26.751Z,6.62
2023-04-15T18:39:54.127Z,6.66
2023-04-15T18:42:21.066Z,6.70
2023-04-15T18:44:47.626Z,6.74
2023-04-15T18:47:14.831Z,6.82
2023-04-15T18:49:41.684Z,6.83
2023-04-15T18:52:09.704Z,6.89
2023-04-15T18:54:36.614Z,6.72
2023-04-15T18:57:06.378Z,6.65
2023-04-15T18:59:33.673Z,6.58
2023-04-15T19:02:01.149Z,6.69
2023-04-15T19:04:29.379Z,6.79
2023-04-15T19:06:56.266Z,6.77
2023-04-15T19:09:22.730Z,6.74
2023-04-15T19:11:49.118Z,6.83
2023-04-15T19:14:15.699Z,6.76
2023-04-15T19:16:42.130Z,6.83
2023-04-15T19:19:08.724Z,6.64
2023-04-15T19:21:35.153Z,6.68
2023-04-15T19:24:02.545Z,6.64
2023-04-15T19:26:29.377Z,6.73
2023-04-15T19:28:58.750Z,6.81
2023-04-15T19:31:26.141Z,6.84
2023-04-15T19:33:52.819Z,6.85
2023-04-15T19:36:19.349Z,6.90
2023-04-15T19:38:45.723Z,6.86
2023-04-15T19:41:12.169Z,6.87
2023-04-15T19:43:38.550Z,6.84
2023-04-15T19:46:06.234Z,6.82
2023-04-15T19:48:32.949Z,6.86
2023-04-15T19:51:00.537Z,6.88
2023-04-15T19:53:27.031Z,6.84
2023-04-15T19:55:53.466Z,6.87
2023-04-15T19:58:19.940Z,6.89
2023-04-15T20:00:46.311Z,6.93
2023-04-15T20:03:12.910Z,6.86
2023-04-15T20:05:39.608Z,6.75
2023-04-15T20:08:06.251Z,6.74
2023-04-15T20:10:32.745Z,6.72
2023-04-15T20:12:59.137Z,6.70
2023-04-15T20:15:25.988Z,6.73
2023-04-15T20:17:52.554Z,6.90
2023-04-15T20:20:19.235Z,6.79
2023-04-15T20:22:45.797Z,6.70
2023-04-15T20:25:12.220Z,6.78
2023-04-15T20:27:38.800Z,6.77
2023-04-15T20:30:06.248Z,6.85
2023-04-15T20:32:35.697Z,6.89
2023-04-15T20:35:03.332Z,6.96
2023-04-15T20:37:30.855Z,6.82
2023-04-15T20:39:57.382Z,6.95
2023-04-15T20:42:23.787Z,6.93
2023-04-15T20:44:50.496Z,6.89
2023-04-15T20:47:17.238Z,7.07
2023-04-15T20:49:43.781Z,6.91
2023-04-15T20:52:10.687Z,6.86
2023-04-15T20:54:37.193Z,6.89
2023-04-15T20:57:03.608Z,6.91
2023-04-15T20:59:30.448Z,6.78
2023-04-15T21:01:57.452Z,6.91
2023-04-15T21:04:25.493Z,6.82
2023-04-15T21:06:52.327Z,6.83
2023-04-15T21:09:19.056Z,6.81
2023-04-15T21:12:00.288Z,6.81
2023-04-15T21:14:27.897Z,6.84
2023-04-15T21:16:54.290Z,6.84
2023-04-15T21:19:20.921Z,6.82
2023-04-15T21:21:47.423Z,6.77
2023-04-15T21:24:13.784Z,6.75
2023-04-15T21:26:40.671Z,6.62
2023-04-15T21:29:09.449Z,6.64
2023-04-15T21:31:37.827Z,6.71
2023-04-15T21:34:04.372Z,6.55
2023-04-15T21:36:31.618Z,6.53
2023-04-15T21:38:58.127Z,6.70
2023-04-15T21:41:24.527Z,6.81
2023-04-15T21:43:50.984Z,6.60
2023-04-15T21:46:23.145Z,6.69
2023-04-15T21:48:53.539Z,6.72
2023-04-15T21:51:20.359Z,6.70
2023-04-15T21:53:46.949Z,6.82
2023-04-15T21:56:13.453Z,6.77
2023-04-15T21:58:39.908Z,6.84
2023-04-15T22:17:22.984Z,6.04
2023-04-15T22:19:49.686Z,6.25
2023-04-15T22:22:16.616Z,6.30
2023-04-15T22:24:43.123Z,6.51
2023-04-15T22:27:09.546Z,6.59
2023-04-15T22:29:36.222Z,6.68
2023-04-15T22:32:03.138Z,6.68
2023-04-15T22:34:29.704Z,6.52
2023-04-15T22:36:56.160Z,6.58
2023-04-15T22:39:22.818Z,6.56
2023-04-15T22:41:49.653Z,6.63
2023-04-15T22:44:16.192Z,6.67
2023-04-15T22:46:42.756Z,6.76
2023-04-15T22:49:09.784Z,6.76
2023-04-15T22:51:37.122Z,6.28
2023-04-15T22:54:03.804Z,6.32
2023-04-15T22:56:30.475Z,6.43
2023-04-15T22:58:57.002Z,6.53
2023-04-15T23:01:23.485Z,6.48
2023-04-15T23:03:57.383Z,6.45
2023-04-15T23:06:30.573Z,6.62
2023-04-15T23:08:57.040Z,6.64
2023-04-15T23:11:23.598Z,6.70
2023-04-15T23:13:50.689Z,6.56
2023-04-15T23:16:17.300Z,6.51
2023-04-15T23:18:43.959Z,6.53
2023-04-15T23:21:10.479Z,6.56
2023-04-15T23:23:37.035Z,6.62
2023-04-15T23:26:04.283Z,6.66
2023-04-15T23:28:31.069Z,6.56
2023-04-15T23:31:00.304Z,6.65
2023-04-15T23:33:27.383Z,6.45
2023-04-15T23:35:54.107Z,6.53
2023-04-15T23:38:23.441Z,6.58
2023-04-15T23:40:51.176Z,6.61
2023-04-15T23:43:17.756Z,6.57
2023-04-15T23:45:44.395Z,6.59
2023-04-15T23:48:10.966Z,6.55
2023-04-15T23:50:37.812Z,6.47
2023-04-15T23:53:04.325Z,6.54
2023-04-15T23:55:31.287Z,6.50
2023-04-15T23:57:57.785Z,6.59
